Time;durP1;ratioP1;P1;durP2;ratioP2;P2;SDS_P1;SDS_P2;PMS_P1;PMS_P2;Temp;Humidity;BMP_temperature;BMP_pressure;BME280_temperature;BME280_humidity;BME280_pressure;Samples;Min_cycle;Max_cycle;Signal;HPM_P1;HPM_P2
2021/12/09 00:00:29;;;;;;;11.07;5.55;;;0.60;89.30;;;;;;5013821;28;20034;-78
2021/12/09 00:02:56;;;;;;;12.55;5.70;;;0.50;89.20;;;;;;5011774;28;20092;-78
2021/12/09 00:05:22;;;;;;;10.10;4.18;;;0.60;89.10;;;;;;5026311;28;20032;-78
2021/12/09 00:07:52;;;;;;;5.85;3.13;;;0.60;88.90;;;;;;5012610;28;20412;-79
2021/12/09 00:10:18;;;;;;;6.88;2.63;;;0.70;88.10;;;;;;5010889;28;20076;-78
2021/12/09 00:12:44;;;;;;;6.63;2.90;;;0.70;88.00;;;;;;5013205;28;20041;-78
2021/12/09 00:15:10;;;;;;;7.97;2.90;;;0.70;88.20;;;;;;5014246;28;20057;-78
2021/12/09 00:17:36;;;;;;;7.18;2.47;;;0.80;88.10;;;;;;5013718;28;20034;-78
2021/12/09 00:20:03;;;;;;;9.65;2.75;;;0.80;88.10;;;;;;5013535;28;20038;-78
2021/12/09 00:22:29;;;;;;;6.05;2.63;;;0.80;88.90;;;;;;5007168;28;20026;-78
2021/12/09 00:24:54;;;;;;;11.95;5.43;;;0.70;90.10;;;;;;5006007;28;20323;-77
2021/12/09 00:27:20;;;;;;;8.80;3.30;;;0.70;90.80;;;;;;5009244;28;20355;-77
2021/12/09 00:29:46;;;;;;;9.02;3.30;;;0.60;90.20;;;;;;5010908;28;20087;-77
2021/12/09 00:32:12;;;;;;;14.45;4.30;;;0.60;90.40;;;;;;5013299;28;20033;-77
2021/12/09 00:34:41;;;;;;;10.98;3.90;;;0.60;90.30;;;;;;5017099;28;20018;-77
2021/12/09 00:37:27;;;;;;;10.10;3.60;;;0.50;90.30;;;;;;5014526;28;20029;-78
2021/12/09 00:39:53;;;;;;;12.73;5.28;;;0.60;90.00;;;;;;5015669;28;20027;-77
2021/12/09 00:42:21;;;;;;;12.43;5.07;;;0.50;90.20;;;;;;5009447;28;20427;-77
2021/12/09 00:44:47;;;;;;;11.85;4.72;;;0.50;90.40;;;;;;5009420;28;20113;-78
2021/12/09 00:47:13;;;;;;;14.95;4.68;;;0.50;89.60;;;;;;5010642;28;20026;-77
2021/12/09 00:49:39;;;;;;;11.10;3.78;;;0.50;89.80;;;;;;5012885;28;20029;-77
2021/12/09 00:52:05;;;;;;;12.90;4.95;;;0.50;89.40;;;;;;5013826;28;20033;-77
2021/12/09 00:54:31;;;;;;;15.98;5.35;;;0.50;89.40;;;;;;5008387;28;20419;-77
2021/12/09 00:56:57;;;;;;;12.18;4.85;;;0.50;89.40;;;;;;5015506;28;20053;-77
2021/12/09 00:59:23;;;;;;;13.43;5.10;;;0.50;89.50;;;;;;5014063;28;20024;-77
2021/12/09 01:01:49;;;;;;;14.70;5.65;;;0.50;88.90;;;;;;5012190;28;20034;-76
2021/12/09 01:04:15;;;;;;;12.25;5.20;;;0.50;88.90;;;;;;5004184;28;20312;-77
2021/12/09 01:06:41;;;;;;;19.38;8.55;;;0.50;89.10;;;;;;5009318;28;20037;-77
2021/12/09 01:09:07;;;;;;;17.60;5.32;;;0.50;89.20;;;;;;5014189;28;20061;-77
2021/12/09 01:11:33;;;;;;;8.82;4.10;;;0.50;88.80;;;;;;5011461;28;20026;-77
2021/12/09 01:14:00;;;;;;;14.80;5.85;;;0.50;88.70;;;;;;5014480;28;20034;-77
2021/12/09 01:16:26;;;;;;;10.55;5.35;;;0.50;88.70;;;;;;5016632;28;20449;-77
2021/12/09 01:18:52;;;;;;;7.93;4.15;;;0.50;88.70;;;;;;5012292;28;20127;-77
2021/12/09 01:21:18;;;;;;;11.02;4.25;;;0.50;88.50;;;;;;5009900;28;20026;-77
2021/12/09 01:23:44;;;;;;;11.02;4.82;;;0.60;88.50;;;;;;5004032;28;20049;-77
2021/12/09 01:26:10;;;;;;;15.60;6.10;;;0.60;88.60;;;;;;5013260;28;20104;-77
2021/12/09 01:31:37;;;;;;;16.38;6.53;;;0.60;88.20;;;;;;5013598;28;20026;-78
2021/12/09 01:34:04;;;;;;;25.35;8.25;;;0.60;88.50;;;;;;5014640;28;20105;-78
2021/12/09 01:36:35;;;;;;;24.83;10.68;;;0.50;88.50;;;;;;5014817;28;20323;-77
2021/12/09 01:39:03;;;;;;;19.80;8.25;;;0.50;88.40;;;;;;5003898;28;20029;-77
2021/12/09 01:41:29;;;;;;;19.40;8.68;;;0.50;88.50;;;;;;5014185;28;20030;-76
2021/12/09 01:43:55;;;;;;;21.35;7.75;;;0.50;88.40;;;;;;5009216;28;20040;-78
2021/12/09 01:46:21;;;;;;;19.45;9.85;;;0.50;88.50;;;;;;5014662;28;20026;-76
2021/12/09 01:48:49;;;;;;;23.40;10.40;;;0.50;88.40;;;;;;5016765;28;20105;-78
2021/12/09 01:51:16;;;;;;;17.85;9.07;;;0.50;88.20;;;;;;5012377;28;20029;-78
2021/12/09 01:53:43;;;;;;;19.45;10.80;;;0.50;88.20;;;;;;5012217;28;20029;-78
2021/12/09 01:56:15;;;;;;;34.35;14.10;;;0.50;88.30;;;;;;5009273;28;21635;-77
2021/12/09 01:58:41;;;;;;;29.65;13.35;;;0.50;87.70;;;;;;5005665;28;20080;-78
2021/12/09 02:01:07;;;;;;;31.77;14.65;;;0.50;88.20;;;;;;5004710;28;20034;-77
2021/12/09 02:03:33;;;;;;;34.10;15.35;;;0.50;88.00;;;;;;5004817;28;20033;-78
2021/12/09 02:05:59;;;;;;;29.67;13.98;;;0.50;88.20;;;;;;5004058;28;20312;-78
2021/12/09 02:08:25;;;;;;;32.78;14.90;;;0.50;88.00;;;;;;5001887;28;20450;-78
2021/12/09 02:10:54;;;;;;;31.35;14.55;;;0.50;88.00;;;;;;5002846;28;20033;-77
2021/12/09 02:13:20;;;;;;;28.88;14.15;;;0.50;87.70;;;;;;5005621;28;20041;-78
2021/12/09 02:15:46;;;;;;;23.10;11.60;;;0.60;87.30;;;;;;5004286;28;20491;-78
2021/12/09 02:18:13;;;;;;;22.42;13.80;;;0.60;87.40;;;;;;5004867;28;20106;-78
2021/12/09 02:20:41;;;;;;;28.88;14.40;;;0.60;87.60;;;;;;5015111;28;20107;-78
2021/12/09 02:23:11;;;;;;;44.55;18.23;;;0.60;88.00;;;;;;5007993;28;20037;-78
2021/12/09 02:25:44;;;;;;;24.95;14.25;;;0.60;87.60;;;;;;5001759;28;20175;-78
2021/12/09 02:28:14;;;;;;;44.75;18.95;;;0.60;87.20;;;;;;5007576;28;20037;-77
2021/12/09 02:30:40;;;;;;;29.23;15.85;;;0.60;88.20;;;;;;5012533;28;20030;-78
2021/12/09 02:33:09;;;;;;;38.15;18.10;;;0.50;88.00;;;;;;5012417;28;20029;-78
2021/12/09 02:35:36;;;;;;;67.80;24.70;;;0.50;88.30;;;;;;5009605;28;20033;-79
2021/12/09 02:38:03;;;;;;;34.03;17.02;;;0.50;88.20;;;;;;5006952;28;20049;-79
2021/12/09 02:40:31;;;;;;;46.83;20.52;;;0.50;88.00;;;;;;5006730;28;20105;-79
2021/12/09 02:42:57;;;;;;;47.28;22.13;;;0.50;87.70;;;;;;5012200;28;20512;-79
2021/12/09 02:45:22;;;;;;;49.78;20.42;;;0.50;87.70;;;;;;5011584;28;20065;-79
2021/12/09 02:47:48;;;;;;;47.08;20.48;;;0.50;87.90;;;;;;5009396;28;20101;-78
2021/12/09 02:50:14;;;;;;;45.33;21.33;;;0.50;87.90;;;;;;5013613;28;20026;-78
2021/12/09 02:52:40;;;;;;;36.67;17.63;;;0.50;87.60;;;;;;5010232;28;20031;-79
2021/12/09 02:55:06;;;;;;;50.92;22.42;;;0.50;87.70;;;;;;5007847;28;20034;-78
2021/12/09 02:57:32;;;;;;;29.42;16.10;;;0.50;87.50;;;;;;5010557;28;20048;-78
2021/12/09 02:59:57;;;;;;;40.58;19.42;;;0.60;86.90;;;;;;5005155;28;20381;-78
2021/12/09 03:02:23;;;;;;;33.88;18.33;;;0.60;87.30;;;;;;5006158;28;20108;-78
2021/12/09 03:04:52;;;;;;;32.92;17.02;;;0.60;87.90;;;;;;5011408;28;20069;-78
2021/12/09 03:07:31;;;;;;;28.90;16.35;;;0.60;87.40;;;;;;4999813;28;20109;-78
2021/12/09 03:10:20;;;;;;;23.55;14.70;;;0.60;87.40;;;;;;5015228;28;20169;-78
2021/12/09 03:12:49;;;;;;;38.22;18.67;;;0.60;87.40;;;;;;5013891;28;20028;-78
2021/12/09 03:15:15;;;;;;;25.25;13.07;;;0.60;87.60;;;;;;5015334;28;20024;-79
2021/12/09 03:17:42;;;;;;;28.80;15.85;;;0.60;87.40;;;;;;5014371;28;20052;-78
2021/12/09 03:20:11;;;;;;;24.08;12.60;;;0.60;87.20;;;;;;5006011;28;20030;-78
2021/12/09 03:22:38;;;;;;;29.48;14.35;;;0.60;87.30;;;;;;5007060;28;20030;-78
2021/12/09 03:25:07;;;;;;;31.33;13.60;;;0.60;87.20;;;;;;5006723;28;20148;-78
2021/12/09 03:27:33;;;;;;;21.15;12.93;;;0.70;87.00;;;;;;5007121;28;20029;-78
2021/12/09 03:29:59;;;;;;;37.38;16.00;;;0.70;87.20;;;;;;5011455;28;20029;-78
2021/12/09 03:32:25;;;;;;;28.55;13.25;;;0.70;87.20;;;;;;5013882;28;20248;-79
2021/12/09 03:34:51;;;;;;;43.88;17.65;;;0.70;87.10;;;;;;5006695;28;20114;-78
2021/12/09 03:37:22;;;;;;;30.42;15.45;;;0.70;87.30;;;;;;5012875;28;20097;-79
2021/12/09 03:39:50;;;;;;;34.58;16.20;;;0.70;87.60;;;;;;5029146;28;20029;-78
2021/12/09 03:42:19;;;;;;;41.47;18.00;;;0.70;87.40;;;;;;5012148;28;20029;-78
2021/12/09 03:44:46;;;;;;;31.80;15.05;;;0.70;87.50;;;;;;5012029;28;20096;-79
2021/12/09 03:47:14;;;;;;;25.75;13.35;;;0.70;87.40;;;;;;5012904;28;20064;-78
2021/12/09 03:49:44;;;;;;;29.50;13.70;;;0.70;87.40;;;;;;5012197;28;20457;-78
2021/12/09 03:52:11;;;;;;;28.23;13.63;;;0.70;87.10;;;;;;5009427;28;20096;-78
2021/12/09 03:54:38;;;;;;;20.42;12.55;;;0.70;87.30;;;;;;5012161;28;20030;-78
2021/12/09 03:57:04;;;;;;;34.53;15.07;;;0.70;87.40;;;;;;5007106;28;20030;-78
2021/12/09 03:59:30;;;;;;;30.90;15.25;;;0.70;87.40;;;;;;5027473;28;20022;-78
2021/12/09 04:01:56;;;;;;;29.67;15.10;;;0.70;87.30;;;;;;5013138;28;20026;-78
2021/12/09 04:04:22;;;;;;;29.10;14.50;;;0.80;87.30;;;;;;5017345;28;20033;-78
2021/12/09 04:06:48;;;;;;;28.83;12.63;;;0.70;87.60;;;;;;5015333;28;20061;-78
2021/12/09 04:09:18;;;;;;;29.67;15.50;;;0.70;87.30;;;;;;5015555;28;20084;-78
2021/12/09 04:11:44;;;;;;;32.08;14.65;;;0.70;87.50;;;;;;5014769;28;20030;-78
2021/12/09 04:14:10;;;;;;;26.25;12.40;;;0.70;87.40;;;;;;5003907;28;20489;-78
2021/12/09 04:16:37;;;;;;;26.65;13.93;;;0.70;87.30;;;;;;5015522;28;20030;-78
2021/12/09 04:19:05;;;;;;;29.15;13.35;;;0.70;87.50;;;;;;5009655;28;20030;-78
2021/12/09 04:21:34;;;;;;;28.35;14.95;;;0.70;87.20;;;;;;5016103;28;20030;-78
2021/12/09 04:24:06;;;;;;;22.55;12.45;;;0.80;87.40;;;;;;5016844;28;20022;-77
2021/12/09 04:26:32;;;;;;;33.40;14.57;;;0.80;87.30;;;;;;5017728;28;20029;-78
2021/12/09 04:28:57;;;;;;;28.98;12.57;;;0.80;87.30;;;;;;5015727;28;20349;-78
2021/12/09 04:31:23;;;;;;;20.35;10.98;;;0.80;87.40;;;;;;5013874;28;20026;-78
2021/12/09 04:33:49;;;;;;;29.02;14.30;;;0.80;87.10;;;;;;5016398;28;20324;-78
2021/12/09 04:36:14;;;;;;;19.75;10.98;;;0.80;87.30;;;;;;5017501;28;20030;-78
2021/12/09 04:38:40;;;;;;;25.75;14.43;;;0.70;87.50;;;;;;5016149;28;20033;-77
2021/12/09 04:41:06;;;;;;;16.30;9.05;;;0.70;87.50;;;;;;5015503;28;20041;-78
2021/12/09 04:43:31;;;;;;;15.88;10.05;;;0.70;87.00;;;;;;5012885;28;20075;-78
2021/12/09 04:45:59;;;;;;;19.65;11.05;;;0.80;87.20;;;;;;5017434;28;20081;-78
2021/12/09 04:48:25;;;;;;;24.80;11.98;;;0.80;87.10;;;;;;5016000;28;20442;-78
2021/12/09 04:50:51;;;;;;;14.63;9.45;;;0.80;87.00;;;;;;5016323;28;20029;-78
2021/12/09 04:53:20;;;;;;;31.38;14.20;;;0.80;87.40;;;;;;5010644;28;20296;-78
2021/12/09 04:55:45;;;;;;;25.92;15.38;;;0.80;87.80;;;;;;5013897;28;20036;-78
2021/12/09 04:58:11;;;;;;;20.70;10.60;;;0.70;87.70;;;;;;5014485;28;20113;-78
2021/12/09 05:00:38;;;;;;;18.02;9.95;;;0.80;87.10;;;;;;5013400;28;20483;-78
2021/12/09 05:03:11;;;;;;;27.67;15.32;;;0.80;87.00;;;;;;5028960;28;20053;-78
2021/12/09 05:05:48;;;;;;;54.67;25.90;;;0.80;87.60;;;;;;5014998;28;20030;-78
2021/12/09 05:08:17;;;;;;;96.22;34.28;;;0.70;88.00;;;;;;5016269;28;20034;-78
2021/12/09 05:11:05;;;;;;;117.78;37.45;;;0.70;88.00;;;;;;5016541;28;20085;-78
2021/12/09 05:13:34;;;;;;;87.15;31.35;;;0.70;87.80;;;;;;5013790;28;20057;-77
2021/12/09 05:16:05;;;;;;;88.78;34.03;;;0.70;87.80;;;;;;5008929;28;20026;-77
2021/12/09 05:18:33;;;;;;;76.60;33.60;;;0.70;87.90;;;;;;5009618;28;20068;-77
2021/12/09 05:21:00;;;;;;;67.30;34.10;;;0.70;88.20;;;;;;5008312;28;20048;-78
2021/12/09 05:23:26;;;;;;;67.68;35.08;;;0.70;87.90;;;;;;5007661;28;20022;-77
2021/12/09 05:25:52;;;;;;;69.50;36.85;;;0.70;87.80;;;;;;5014937;28;20026;-78
2021/12/09 05:28:21;;;;;;;65.97;32.60;;;0.70;88.20;;;;;;5014547;28;20334;-77
2021/12/09 05:33:33;;;;;;;47.80;28.10;;;0.70;87.70;;;;;;5014208;28;20489;-79
2021/12/09 05:36:00;;;;;;;43.05;23.95;;;0.70;88.00;;;;;;5012078;28;20084;-77
2021/12/09 05:38:26;;;;;;;30.02;16.77;;;0.70;88.10;;;;;;5012356;28;20415;-78
2021/12/09 05:40:52;;;;;;;22.08;12.05;;;0.70;87.70;;;;;;5016255;28;20026;-78
2021/12/09 05:43:19;;;;;;;21.65;12.70;;;0.80;87.60;;;;;;5016138;28;20026;-78
2021/12/09 05:45:46;;;;;;;35.53;17.58;;;0.70;87.70;;;;;;5016524;28;20030;-78
2021/12/09 05:48:13;;;;;;;24.92;15.07;;;0.70;88.00;;;;;;5016545;28;20018;-78
2021/12/09 05:50:39;;;;;;;23.10;13.52;;;0.70;88.50;;;;;;5014748;28;20030;-78
2021/12/09 05:53:08;;;;;;;27.15;15.18;;;0.70;88.70;;;;;;5012300;28;20228;-78
2021/12/09 05:55:35;;;;;;;37.30;18.83;;;0.70;88.70;;;;;;5013070;28;20036;-78
2021/12/09 05:58:01;;;;;;;39.58;20.13;;;0.60;88.30;;;;;;5007862;28;20314;-77
2021/12/09 06:00:27;;;;;;;44.17;21.92;;;0.70;88.30;;;;;;5012948;28;20025;-78
2021/12/09 06:02:53;;;;;;;32.92;14.95;;;0.60;88.60;;;;;;5018637;28;20342;-78
2021/12/09 06:05:20;;;;;;;45.22;23.83;;;0.60;88.50;;;;;;5015280;28;20026;-78
2021/12/09 06:07:47;;;;;;;31.23;17.35;;;0.60;88.80;;;;;;5010930;28;20021;-78
2021/12/09 06:10:12;;;;;;;33.17;16.35;;;0.60;88.60;;;;;;5009574;28;20025;-78
2021/12/09 06:12:38;;;;;;;26.13;15.90;;;0.60;88.90;;;;;;5009575;28;20534;-78
2021/12/09 06:15:05;;;;;;;34.65;17.73;;;0.60;88.90;;;;;;5007990;28;20339;-78
2021/12/09 06:17:31;;;;;;;25.27;13.13;;;0.60;88.50;;;;;;5005955;28;20025;-78
2021/12/09 06:19:57;;;;;;;26.23;14.70;;;0.60;88.30;;;;;;5015548;28;20025;-78
2021/12/09 06:22:22;;;;;;;63.42;34.92;;;0.60;88.70;;;;;;5014179;28;20426;-78
2021/12/09 06:24:48;;;;;;;49.13;27.88;;;0.60;88.80;;;;;;5009391;28;20030;-78
2021/12/09 06:27:14;;;;;;;39.40;23.52;;;0.50;88.40;;;;;;5014498;28;20046;-78
2021/12/09 06:29:40;;;;;;;43.13;23.88;;;0.60;88.30;;;;;;5014261;28;20030;-78
2021/12/09 06:32:07;;;;;;;40.15;22.67;;;0.60;88.50;;;;;;5014452;28;20370;-78
2021/12/09 06:34:33;;;;;;;19.42;11.25;;;0.60;88.40;;;;;;5014739;28;20020;-78
2021/12/09 06:36:59;;;;;;;11.35;7.22;;;0.60;87.30;;;;;;5007863;28;20103;-78
2021/12/09 06:39:25;;;;;;;14.75;8.45;;;0.70;86.90;;;;;;5014534;28;20022;-78
2021/12/09 06:41:50;;;;;;;15.52;7.75;;;0.70;87.30;;;;;;5011876;28;20037;-78
2021/12/09 06:44:16;;;;;;;18.63;8.35;;;0.70;87.60;;;;;;5005019;28;20025;-77
2021/12/09 06:46:42;;;;;;;19.58;9.45;;;0.70;87.90;;;;;;5013530;28;20041;-78
2021/12/09 06:49:07;;;;;;;26.77;10.95;;;0.60;88.80;;;;;;5013681;28;20030;-77
2021/12/09 06:51:34;;;;;;;16.00;6.88;;;0.60;88.50;;;;;;5014027;28;20038;-78
2021/12/09 06:53:59;;;;;;;14.45;7.00;;;0.60;87.70;;;;;;5013010;28;20112;-78
2021/12/09 06:56:27;;;;;;;15.15;7.38;;;0.50;88.40;;;;;;5012741;28;20168;-78
2021/12/09 06:58:54;;;;;;;17.02;6.32;;;0.50;88.60;;;;;;5009096;28;20032;-78
2021/12/09 07:01:19;;;;;;;14.02;6.28;;;0.40;88.90;;;;;;5005368;28;20340;-78
2021/12/09 07:03:45;;;;;;;12.88;6.82;;;0.50;88.30;;;;;;5012578;28;20033;-78
2021/12/09 07:06:12;;;;;;;15.60;6.72;;;0.40;89.00;;;;;;5012055;28;20030;-78
2021/12/09 07:08:45;;;;;;;20.92;8.65;;;0.50;88.20;;;;;;5009042;28;20045;-79
2021/12/09 07:11:17;;;;;;;17.98;7.75;;;0.50;88.40;;;;;;5013612;28;20030;-78
2021/12/09 07:13:43;;;;;;;18.17;9.38;;;0.50;88.70;;;;;;5007683;28;20066;-78
2021/12/09 07:16:09;;;;;;;21.00;11.45;;;0.60;88.80;;;;;;5005018;28;20059;-78
2021/12/09 07:18:35;;;;;;;19.77;9.85;;;0.70;88.40;;;;;;5011396;28;20443;-78
2021/12/09 07:21:01;;;;;;;13.43;6.75;;;0.70;89.50;;;;;;5008913;28;20034;-78
2021/12/09 07:23:27;;;;;;;22.00;9.00;;;0.70;88.70;;;;;;5017728;28;20033;-79
2021/12/09 07:25:53;;;;;;;19.95;8.55;;;0.80;89.00;;;;;;5014887;28;20022;-77
2021/12/09 07:28:19;;;;;;;22.67;12.45;;;0.80;89.60;;;;;;5010849;28;20117;-78
2021/12/09 07:30:45;;;;;;;16.52;9.82;;;0.80;90.10;;;;;;5011421;28;20112;-78
2021/12/09 07:33:11;;;;;;;23.40;10.90;;;0.80;89.20;;;;;;5015295;28;20045;-78
2021/12/09 07:35:37;;;;;;;22.85;11.13;;;0.90;89.90;;;;;;5014557;28;20041;-78
2021/12/09 07:38:04;;;;;;;15.02;8.63;;;0.90;89.70;;;;;;5014067;28;20025;-78
2021/12/09 07:40:31;;;;;;;17.13;9.25;;;0.90;90.50;;;;;;5017724;28;20041;-78
2021/12/09 07:42:57;;;;;;;16.77;9.88;;;0.80;90.70;;;;;;5018478;28;20038;-78
2021/12/09 07:45:23;;;;;;;12.93;6.90;;;0.90;90.80;;;;;;5013493;28;20109;-78
2021/12/09 07:47:50;;;;;;;18.88;7.60;;;0.90;90.80;;;;;;5012910;28;20030;-78
2021/12/09 07:50:20;;;;;;;10.77;5.45;;;1.00;90.80;;;;;;5016312;28;20113;-79
2021/12/09 07:52:48;;;;;;;15.48;7.53;;;1.00;91.60;;;;;;5016936;28;20109;-78
2021/12/09 07:55:15;;;;;;;13.32;7.30;;;1.00;91.80;;;;;;5017291;28;20040;-78
2021/12/09 07:57:41;;;;;;;22.95;11.65;;;1.00;91.80;;;;;;5016557;28;20034;-79
2021/12/09 08:00:12;;;;;;;13.10;7.13;;;1.00;92.20;;;;;;5016944;28;20109;-78
2021/12/09 08:02:39;;;;;;;22.38;10.95;;;1.10;91.80;;;;;;5031959;28;20076;-78
2021/12/09 08:05:05;;;;;;;22.08;11.27;;;1.10;92.40;;;;;;5017111;28;20038;-78
2021/12/09 08:07:31;;;;;;;12.07;5.25;;;1.10;92.90;;;;;;5014652;28;20029;-78
2021/12/09 08:09:56;;;;;;;16.77;7.40;;;1.10;93.10;;;;;;5016557;28;20407;-77
2021/12/09 08:12:22;;;;;;;15.32;6.32;;;1.10;93.30;;;;;;5017721;28;20045;-77
2021/12/09 08:14:48;;;;;;;12.43;7.97;;;1.10;93.60;;;;;;5013661;28;20037;-77
2021/12/09 08:20:01;;;;;;;13.57;8.05;;;1.10;93.50;;;;;;5011648;28;20030;-79
2021/12/09 08:22:27;;;;;;;16.85;9.02;;;1.20;94.10;;;;;;5016675;28;20107;-79
2021/12/09 08:24:55;;;;;;;19.23;8.50;;;1.20;94.30;;;;;;5017686;28;20415;-79
2021/12/09 08:27:21;;;;;;;12.43;7.10;;;1.20;94.10;;;;;;5009676;28;20332;-79
2021/12/09 08:29:47;;;;;;;10.20;5.20;;;1.20;94.30;;;;;;5017667;28;20030;-78
2021/12/09 08:32:13;;;;;;;12.00;5.88;;;1.20;94.70;;;;;;5017107;28;20053;-79
2021/12/09 08:34:39;;;;;;;9.32;5.00;;;1.20;95.60;;;;;;5017747;28;20109;-78
2021/12/09 08:37:05;;;;;;;11.63;5.00;;;1.20;96.20;;;;;;5017281;28;20033;-78
2021/12/09 08:39:31;;;;;;;14.13;6.95;;;1.30;96.40;;;;;;5016544;28;20060;-77
2021/12/09 08:41:56;;;;;;;12.18;6.78;;;1.30;97.10;;;;;;5013001;28;20033;-78
2021/12/09 08:44:22;;;;;;;18.88;9.73;;;1.40;97.90;;;;;;5015697;28;20419;-77
2021/12/09 08:46:48;;;;;;;11.93;6.53;;;1.30;98.00;;;;;;5015179;28;20418;-78
2021/12/09 08:49:14;;;;;;;10.10;5.93;;;1.40;98.00;;;;;;5015326;28;20419;-78
2021/12/09 08:51:44;;;;;;;12.18;6.40;;;1.50;98.00;;;;;;5016710;28;20105;-79
2021/12/09 08:54:10;;;;;;;12.30;5.90;;;1.50;98.00;;;;;;5015281;28;20026;-78
2021/12/09 08:56:39;;;;;;;9.73;4.68;;;1.60;98.00;;;;;;5017872;28;20037;-78
2021/12/09 08:59:06;;;;;;;9.65;5.60;;;1.70;98.00;;;;;;5015686;28;20033;-78
2021/12/09 09:01:34;;;;;;;13.90;6.60;;;1.60;98.00;;;;;;5011320;28;20053;-78
2021/12/09 09:04:01;;;;;;;11.35;6.05;;;1.70;98.00;;;;;;5017089;28;20323;-78
2021/12/09 09:06:29;;;;;;;12.70;6.80;;;1.70;98.00;;;;;;5015707;28;20129;-78
2021/12/09 09:08:57;;;;;;;11.35;6.32;;;1.70;98.00;;;;;;5016372;28;20109;-78
2021/12/09 09:11:24;;;;;;;11.85;5.80;;;1.60;98.00;;;;;;5016688;28;20097;-78
2021/12/09 09:13:50;;;;;;;9.90;6.15;;;1.60;98.00;;;;;;5013071;28;20022;-78
2021/12/09 09:16:16;;;;;;;10.70;5.43;;;1.60;98.00;;;;;;5009794;28;20074;-78
2021/12/09 09:18:42;;;;;;;9.48;5.00;;;1.60;98.00;;;;;;5016205;28;20457;-78
2021/12/09 09:21:08;;;;;;;9.73;5.03;;;1.60;98.00;;;;;;5017583;28;20362;-78
2021/12/09 09:23:34;;;;;;;12.85;7.00;;;1.50;98.00;;;;;;5016106;28;20022;-78
2021/12/09 09:26:00;;;;;;;9.07;5.47;;;1.50;98.00;;;;;;5014975;28;20419;-78
2021/12/09 09:28:27;;;;;;;9.68;5.88;;;1.40;98.00;;;;;;5012111;28;20038;-78
2021/12/09 09:30:57;;;;;;;14.38;6.75;;;1.40;98.00;;;;;;5015280;28;20041;-77
2021/12/09 09:33:29;;;;;;;11.65;6.53;;;1.50;98.00;;;;;;5015236;28;20030;-78
2021/12/09 09:35:54;;;;;;;17.27;6.88;;;1.50;98.00;;;;;;5016314;28;20364;-78
2021/12/09 09:38:21;;;;;;;10.80;6.18;;;1.60;98.00;;;;;;5014674;28;20041;-78
2021/12/09 09:41:10;;;;;;;13.85;7.32;;;1.60;98.00;;;;;;5010037;28;20033;-77
2021/12/09 09:46:15;;;;;;;11.32;6.97;;;1.70;98.00;;;;;;5015161;28;20033;-77
2021/12/09 09:48:44;;;;;;;15.65;6.90;;;1.70;98.00;;;;;;5014040;28;20033;-77
2021/12/09 09:51:10;;;;;;;14.80;7.13;;;1.70;98.00;;;;;;5016171;28;20033;-77
2021/12/09 09:53:39;;;;;;;15.55;6.88;;;1.70;98.00;;;;;;5011382;28;20057;-77
2021/12/09 09:56:13;;;;;;;13.45;5.63;;;1.80;98.00;;;;;;5016935;28;20116;-78
2021/12/09 09:58:43;;;;;;;13.18;5.97;;;1.90;98.00;;;;;;5013615;28;20105;-77
2021/12/09 10:01:09;;;;;;;9.82;6.22;;;1.90;98.00;;;;;;5010797;28;20096;-78
2021/12/09 10:03:42;;;;;;;8.43;5.10;;;1.90;98.00;;;;;;5014935;28;20038;-78
2021/12/09 10:06:09;;;;;;;10.57;5.60;;;1.90;98.00;;;;;;5013661;28;20045;-78
2021/12/09 10:08:35;;;;;;;8.13;4.90;;;2.00;98.00;;;;;;5015587;28;20034;-78
2021/12/09 10:11:02;;;;;;;8.90;4.53;;;2.00;98.00;;;;;;5016535;28;20024;-78
2021/12/09 10:13:34;;;;;;;11.20;6.07;;;2.00;98.00;;;;;;5012338;28;20114;-79
2021/12/09 10:16:01;;;;;;;11.95;5.30;;;2.00;98.00;;;;;;5007282;28;20096;-78
2021/12/09 10:18:43;;;;;;;12.75;6.85;;;2.10;98.00;;;;;;5016159;28;20030;-78
2021/12/09 10:21:12;;;;;;;9.90;5.60;;;2.20;98.00;;;;;;5015600;28;20115;-78
2021/12/09 10:23:42;;;;;;;10.68;5.65;;;2.30;98.00;;;;;;4996813;28;20037;-78
2021/12/09 10:26:16;;;;;;;10.15;5.78;;;2.30;98.00;;;;;;5014261;28;20030;-78
2021/12/09 10:28:50;;;;;;;10.38;5.28;;;2.30;98.00;;;;;;5008859;28;20064;-78
2021/12/09 10:31:27;;;;;;;12.00;6.50;;;2.40;98.00;;;;;;5014904;28;20418;-78
2021/12/09 10:33:58;;;;;;;12.27;5.70;;;2.50;98.00;;;;;;5015353;28;20098;-78
2021/12/09 10:36:44;;;;;;;13.68;6.78;;;2.50;98.00;;;;;;5014029;28;20061;-77
2021/12/09 10:39:19;;;;;;;11.43;5.40;;;2.50;98.00;;;;;;5012713;28;20045;-78
2021/12/09 10:41:45;;;;;;;9.35;5.85;;;2.50;98.00;;;;;;5001789;28;20025;-78
2021/12/09 10:44:12;;;;;;;12.48;6.95;;;2.40;98.00;;;;;;5012762;28;20034;-78
2021/12/09 10:46:56;;;;;;;12.38;6.70;;;2.40;98.00;;;;;;5013860;28;20326;-78
2021/12/09 10:49:23;;;;;;;13.43;7.45;;;2.40;98.00;;;;;;5009034;28;20057;-78
2021/12/09 10:54:41;;;;;;;13.38;6.55;;;2.30;98.00;;;;;;5012967;28;20037;-78
2021/12/09 10:57:26;;;;;;;15.95;7.00;;;2.30;98.00;;;;;;5015101;28;20033;-76
2021/12/09 10:59:52;;;;;;;13.65;8.57;;;2.30;98.00;;;;;;5029501;28;20029;-78
2021/12/09 11:02:18;;;;;;;14.27;7.53;;;2.30;98.00;;;;;;5014648;28;20029;-77
2021/12/09 11:04:58;;;;;;;14.02;7.63;;;2.30;98.00;;;;;;5015663;28;20445;-76
2021/12/09 11:07:28;;;;;;;15.13;7.20;;;2.40;98.00;;;;;;5012624;28;20386;-77
2021/12/09 11:10:22;;;;;;;15.65;8.95;;;2.40;98.00;;;;;;5014655;28;20172;-77
2021/12/09 11:12:58;;;;;;;14.27;9.10;;;2.40;98.00;;;;;;5006442;28;20022;-77
2021/12/09 11:15:44;;;;;;;12.27;6.80;;;2.40;98.00;;;;;;5007238;28;20046;-78
2021/12/09 11:18:35;;;;;;;11.00;7.10;;;2.40;98.00;;;;;;5015640;28;20041;-78
2021/12/09 11:21:08;;;;;;;13.73;7.60;;;2.40;98.00;;;;;;5015094;28;20032;-79
2021/12/09 11:23:43;;;;;;;11.77;5.80;;;2.40;98.00;;;;;;5012946;28;20382;-78
2021/12/09 11:26:27;;;;;;;11.68;6.30;;;2.40;98.00;;;;;;5011124;28;20107;-78
2021/12/09 11:28:55;;;;;;;13.07;6.18;;;2.40;98.00;;;;;;5011064;28;20050;-78
2021/12/09 11:31:24;;;;;;;15.73;6.53;;;2.30;98.00;;;;;;5014235;28;20080;-78
2021/12/09 11:33:56;;;;;;;13.32;6.20;;;2.30;98.00;;;;;;5015295;28;20423;-77
2021/12/09 11:36:39;;;;;;;11.88;6.45;;;2.30;98.00;;;;;;5013573;28;20029;-78
2021/12/09 11:39:15;;;;;;;17.98;7.05;;;2.30;98.00;;;;;;5014151;28;20028;-78
2021/12/09 11:41:42;;;;;;;13.98;6.75;;;2.30;98.00;;;;;;5012080;28;20081;-78
2021/12/09 11:44:09;;;;;;;12.73;5.78;;;2.20;98.00;;;;;;5011059;28;20506;-78
2021/12/09 11:46:48;;;;;;;13.55;7.45;;;2.20;98.00;;;;;;5013195;28;20044;-78
2021/12/09 11:49:15;;;;;;;12.55;8.07;;;2.20;98.00;;;;;;5009474;28;20455;-77
2021/12/09 11:51:41;;;;;;;12.70;6.55;;;2.20;98.00;;;;;;4986568;28;20033;-77
2021/12/09 11:54:09;;;;;;;13.50;6.80;;;2.30;98.00;;;;;;5000005;28;20415;-78
2021/12/09 11:56:58;;;;;;;12.43;7.93;;;2.30;98.00;;;;;;5027636;28;20034;-77
2021/12/09 12:11:25;;;;;;;12.02;7.07;;;2.30;98.00;;;;;;5017846;28;20455;-77
2021/12/09 12:14:03;;;;;;;11.05;6.15;;;2.40;98.00;;;;;;5006880;28;20061;-78
2021/12/09 12:17:11;;;;;;;13.50;6.40;;;2.40;98.00;;;;;;5006905;28;20022;-78
2021/12/09 12:37:22;;;;;;;23.88;16.02;;;2.20;98.00;;;;;;5019184;28;20125;-78
2021/12/09 12:42:16;;;;;;;25.08;15.68;;;2.60;98.00;;;;;;5019053;28;20419;-78
2021/12/09 12:51:21;;;;;;;29.90;16.95;;;2.80;98.00;;;;;;5017961;28;20109;-79
2021/12/09 12:53:54;;;;;;;20.30;13.25;;;2.90;98.00;;;;;;5016696;28;20021;-79
2021/12/09 12:56:27;;;;;;;14.10;7.35;;;2.90;98.00;;;;;;5018190;28;20025;-79
2021/12/09 12:59:10;;;;;;;17.13;8.32;;;2.90;98.00;;;;;;5018194;28;20022;-78
2021/12/09 13:01:46;;;;;;;10.50;6.82;;;3.00;98.00;;;;;;5016001;28;20367;-78
2021/12/09 13:16:11;;;;;;;7.68;4.35;;;3.90;98.00;;;;;;5004816;28;20041;-79
2021/12/09 13:21:46;;;;;;;13.20;8.13;;;3.80;98.00;;;;;;5017395;28;20022;-79
2021/12/09 13:49:58;;;;;;;12.07;3.13;;;4.30;98.00;;;;;;5016409;28;20030;-79
2021/12/09 13:55:15;;;;;;;11.52;3.40;;;3.90;98.00;;;;;;5016951;28;20420;-79
2021/12/09 13:57:43;;;;;;;16.40;7.60;;;3.70;98.00;;;;;;5017458;28;20037;-78
2021/12/09 14:00:31;;;;;;;11.75;4.10;;;3.40;98.00;;;;;;5016983;28;20391;-78
2021/12/09 14:03:04;;;;;;;7.93;3.13;;;3.30;98.00;;;;;;5009752;28;20022;-78
2021/12/09 14:05:48;;;;;;;9.25;3.47;;;3.10;98.00;;;;;;5010338;28;20108;-78
2021/12/09 14:08:28;;;;;;;10.90;2.97;;;3.00;98.00;;;;;;5015327;28;20323;-78
2021/12/09 14:11:00;;;;;;;11.50;3.67;;;3.00;98.00;;;;;;5015541;28;20109;-79
2021/12/09 14:13:28;;;;;;;12.82;4.55;;;3.00;98.00;;;;;;5011333;28;20010;-79
2021/12/09 14:16:08;;;;;;;18.65;7.13;;;3.00;98.00;;;;;;5007304;28;20112;-79
2021/12/09 14:19:57;;;;;;;10.93;3.55;;;3.00;98.00;;;;;;5017219;28;20028;-79
2021/12/09 14:21:23;;;;;;;14.75;4.35;;;2.90;98.00;;;;;;5015106;28;20360;-79
2021/12/09 14:24:01;;;;;;;13.98;3.17;;;3.00;98.00;;;;;;5016196;28;20431;-79
2021/12/09 14:26:27;;;;;;;12.75;3.50;;;3.00;98.00;;;;;;5014628;28;20112;-79